Time;durP1;ratioP1;P1;durP2;ratioP2;P2;SDS_P1;SDS_P2;PMS_P1;PMS_P2;Temp;Humidity;BMP_temperature;BMP_pressure;BME280_temperature;BME280_humidity;BME280_pressure;Samples;Min_cycle;Max_cycle;Signal;HPM_P1;HPM_P2
2022/09/17 00:00:58;;;;;;;15.48;14.48;;;;;;;20.32;74.46;100162.41;5011430;28;102288;-56
2022/09/17 00:03:25;;;;;;;13.90;12.93;;;;;;;20.33;74.41;100164.00;5015409;28;104024;-55
2022/09/17 00:05:58;;;;;;;15.95;14.95;;;;;;;20.33;74.57;100172.28;5012041;28;102035;-56
2022/09/17 00:08:26;;;;;;;14.43;13.45;;;;;;;20.33;74.59;100175.03;5008862;28;102564;-55
2022/09/17 00:10:53;;;;;;;14.00;13.20;;;;;;;20.33;74.51;100169.53;5012979;28;102581;-55
2022/09/17 00:13:21;;;;;;;14.02;13.18;;;;;;;20.32;74.65;100167.13;5011811;28;104106;-59
2022/09/17 00:15:47;;;;;;;15.05;14.25;;;;;;;20.33;74.52;100164.00;5010528;28;101973;-55
2022/09/17 00:18:15;;;;;;;15.70;14.80;;;;;;;20.33;74.62;100158.47;5014047;28;102375;-49
2022/09/17 00:20:45;;;;;;;12.77;12.07;;;;;;;20.33;74.66;100158.47;5013252;28;102217;-56
2022/09/17 00:23:13;;;;;;;14.43;13.52;;;;;;;20.33;74.61;100136.34;5015288;28;103957;-56
2022/09/17 00:25:42;;;;;;;17.65;16.60;;;;;;;20.32;74.76;100129.22;5015764;28;102211;-55
2022/09/17 00:28:09;;;;;;;14.77;13.90;;;;;;;20.32;74.77;100111.84;5015138;28;102242;-55
2022/09/17 00:30:38;;;;;;;13.95;12.95;;;;;;;20.31;74.64;100122.09;4997666;28;102889;-55
2022/09/17 00:33:05;;;;;;;15.10;14.27;;;;;;;20.30;74.92;100120.50;5009352;28;103961;-55
2022/09/17 00:35:33;;;;;;;14.10;13.23;;;;;;;20.32;75.09;100117.38;5015556;28;102492;-56
2022/09/17 00:37:59;;;;;;;14.20;13.40;;;;;;;20.31;74.67;100133.16;5014574;28;102338;-55
2022/09/17 00:40:26;;;;;;;14.43;13.63;;;;;;;20.33;74.68;100124.50;5003269;28;102841;-55
2022/09/17 00:42:52;;;;;;;13.57;12.77;;;;;;;20.34;74.77;100126.09;5009826;28;104752;-55
2022/09/17 00:45:19;;;;;;;14.40;13.50;;;;;;;20.31;74.79;100138.69;5017906;28;102462;-55
2022/09/17 00:47:49;;;;;;;13.93;13.13;;;;;;;20.33;74.90;100130.03;5009893;28;102332;-56
2022/09/17 00:50:18;;;;;;;15.55;14.65;;;;;;;20.33;74.77;100124.50;5003043;28;102178;-55
2022/09/17 00:52:49;;;;;;;16.98;16.05;;;;;;;20.32;74.92;100122.91;5004500;28;103861;-55
2022/09/17 00:55:20;;;;;;;14.45;13.55;;;;;;;20.30;75.12;100131.56;5006604;28;102256;-55
2022/09/17 00:57:47;;;;;;;16.55;15.65;;;;;;;20.30;75.03;100116.91;5017937;28;102379;-55
2022/09/17 01:00:16;;;;;;;17.17;16.23;;;;;;;20.30;75.07;100123.28;5019877;28;102160;-55
2022/09/17 01:02:43;;;;;;;15.85;14.98;;;;;;;20.31;75.32;100135.91;5017641;28;104109;-55
2022/09/17 01:05:10;;;;;;;15.60;14.68;;;;;;;20.31;74.97;100144.22;5017811;28;101912;-55
2022/09/17 01:08:00;;;;;;;15.55;14.65;;;;;;;20.32;74.91;100151.34;5017733;28;102151;-55
2022/09/17 01:10:51;;;;;;;17.60;16.38;;;;;;;20.32;75.11;100143.06;5000273;28;102082;-55
2022/09/17 01:13:30;;;;;;;16.23;15.32;;;;;;;20.31;75.19;100132.34;5013576;28;103867;-55
2022/09/17 01:16:06;;;;;;;15.20;14.20;;;;;;;20.30;75.03;100131.56;5019208;28;102059;-55
2022/09/17 01:18:47;;;;;;;16.23;15.35;;;;;;;20.31;75.30;100116.56;5017534;28;102622;-55
2022/09/17 01:21:45;;;;;;;17.52;16.42;;;;;;;20.30;75.17;100095.63;5016279;28;102665;-55
2022/09/17 01:24:54;;;;;;;18.33;17.27;;;;;;;20.30;74.96;100089.28;5017533;28;103880;-55
2022/09/17 01:27:52;;;;;;;16.75;15.65;;;;;;;20.30;75.33;100092.03;4985569;28;102228;-56
2022/09/17 01:30:53;;;;;;;15.23;14.25;;;;;;;20.29;75.20;100096.78;5010691;28;103679;-55
2022/09/17 01:33:27;;;;;;;17.08;16.15;;;;;;;20.29;75.22;100091.25;5017785;28;102513;-55
2022/09/17 01:36:05;;;;;;;17.58;16.58;;;;;;;20.28;75.54;100089.66;5016742;28;104012;-55
2022/09/17 01:38:39;;;;;;;17.50;16.50;;;;;;;20.29;75.16;100091.25;5013511;28;102699;-55
2022/09/17 01:41:15;;;;;;;16.55;15.65;;;;;;;20.27;75.31;100087.25;5016520;28;102082;-55
2022/09/17 01:43:47;;;;;;;19.40;18.20;;;;;;;20.28;75.14;100088.84;5018997;28;102661;-55
2022/09/17 01:46:19;;;;;;;17.60;16.60;;;;;;;20.28;75.39;100077.78;5016958;28;103879;-55
2022/09/17 01:48:50;;;;;;;18.33;17.20;;;;;;;20.27;75.26;100082.53;5013917;28;102363;-56
2022/09/17 01:51:21;;;;;;;18.35;17.15;;;;;;;20.26;75.26;100080.09;4997957;28;102298;-55
2022/09/17 01:53:56;;;;;;;16.30;15.30;;;;;;;20.26;75.69;100069.84;4999590;28;102415;-55
2022/09/17 01:56:26;;;;;;;17.58;16.48;;;;;;;20.27;75.02;100071.47;5017412;28;103968;-55
2022/09/17 01:58:58;;;;;;;19.50;18.30;;;;;;;20.26;75.37;100069.84;5013270;28;102235;-55
2022/09/17 02:01:30;;;;;;;18.42;17.42;;;;;;;20.27;75.06;100071.47;4997746;28;102005;-56
2022/09/17 02:04:01;;;;;;;20.00;18.80;;;;;;;20.26;75.41;100063.50;5007956;28;102884;-56
2022/09/17 02:06:32;;;;;;;18.80;17.80;;;;;;;20.26;75.52;100056.03;5014886;28;104135;-55
2022/09/17 02:09:04;;;;;;;18.40;17.40;;;;;;;20.26;75.49;100060.75;5014975;28;102587;-55
2022/09/17 02:11:35;;;;;;;20.90;19.70;;;;;;;20.24;75.11;100061.13;5003323;28;101934;-55
2022/09/17 02:14:06;;;;;;;18.77;17.58;;;;;;;20.26;75.39;100063.50;5013683;28;102328;-55
2022/09/17 02:16:36;;;;;;;18.20;17.13;;;;;;;20.26;75.40;100061.56;4998344;28;103981;-55
2022/09/17 02:19:08;;;;;;;18.10;16.88;;;;;;;20.26;75.36;100064.31;5017792;28;101949;-55
2022/09/17 02:21:43;;;;;;;15.38;14.48;;;;;;;20.25;75.32;100065.47;5006000;28;102178;-53
2022/09/17 02:24:16;;;;;;;18.67;17.67;;;;;;;20.25;75.37;100054.44;5017254;28;102268;-55
2022/09/17 02:26:47;;;;;;;17.77;16.73;;;;;;;20.26;75.26;100052.47;5006507;28;103977;-55
2022/09/17 02:29:22;;;;;;;18.40;17.40;;;;;;;20.24;75.12;100055.59;5009857;28;102251;-55
2022/09/17 02:31:50;;;;;;;17.08;16.15;;;;;;;20.24;75.22;100063.88;5001419;28;102148;-55
2022/09/17 02:34:18;;;;;;;15.30;14.45;;;;;;;20.24;75.21;100058.34;5018347;28;102352;-55
2022/09/17 02:36:45;;;;;;;14.98;14.07;;;;;;;20.24;75.16;100061.13;5008013;28;104171;-55
2022/09/17 02:39:11;;;;;;;16.10;15.20;;;;;;;20.23;74.98;100056.75;5012705;28;102003;-55
2022/09/17 02:41:50;;;;;;;15.80;14.88;;;;;;;20.25;75.17;100045.34;5015007;28;102371;-55
2022/09/17 02:44:25;;;;;;;15.43;14.52;;;;;;;20.24;75.02;100052.81;5018481;28;102352;-55
2022/09/17 02:47:29;;;;;;;15.18;14.18;;;;;;;20.24;74.97;100061.13;5000888;28;103848;-55
2022/09/17 02:50:08;;;;;;;15.77;14.88;;;;;;;20.25;75.13;100050.88;4970731;28;102609;-55
2022/09/17 02:52:48;;;;;;;14.85;13.95;;;;;;;20.24;75.08;100050.06;4993704;28;102036;-55
2022/09/17 02:55:19;;;;;;;13.88;13.05;;;;;;;20.24;75.25;100054.78;5015727;28;102142;-55
2022/09/17 02:57:53;;;;;;;14.07;13.32;;;;;;;20.24;75.25;100052.81;5006154;28;108142;-54
2022/09/17 03:00:21;;;;;;;15.63;14.75;;;;;;;20.23;75.09;100051.22;4996911;28;102560;-55
2022/09/17 03:02:55;;;;;;;15.18;14.27;;;;;;;20.23;74.99;100045.72;4998364;28;101913;-55
2022/09/17 03:05:23;;;;;;;13.68;12.98;;;;;;;20.24;75.08;100047.31;5004512;28;102654;-55
2022/09/17 03:07:50;;;;;;;13.45;12.65;;;;;;;20.23;75.09;100042.94;5014139;28;103987;-56
2022/09/17 03:10:17;;;;;;;14.73;13.93;;;;;;;20.23;75.22;100034.66;5013841;28;102295;-55
2022/09/17 03:12:45;;;;;;;14.80;14.00;;;;;;;20.23;75.03;100036.59;5015150;28;102072;-55
2022/09/17 03:15:11;;;;;;;13.38;12.57;;;;;;;20.24;75.07;100038.22;5013371;28;102113;-56
2022/09/17 03:17:39;;;;;;;16.08;15.18;;;;;;;20.24;75.31;100030.72;5009586;28;103897;-59
2022/09/17 03:20:08;;;;;;;16.65;15.70;;;;;;;20.22;75.05;100024.75;5013064;28;102020;-55
2022/09/17 03:22:34;;;;;;;16.92;15.98;;;;;;;20.23;74.90;100031.91;5016410;28;102415;-55
2022/09/17 03:25:01;;;;;;;16.63;15.52;;;;;;;20.23;74.86;100040.19;5017471;28;102612;-55
2022/09/17 03:27:28;;;;;;;15.23;14.38;;;;;;;20.23;75.08;100033.81;5016640;28;104128;-55
2022/09/17 03:29:54;;;;;;;15.20;14.40;;;;;;;20.21;74.84;100023.13;5016309;28;102551;-55
2022/09/17 03:32:21;;;;;;;15.10;14.20;;;;;;;20.22;75.06;100024.75;5013873;28;102453;-55
2022/09/17 03:34:47;;;;;;;17.52;16.60;;;;;;;20.21;74.64;100019.56;5017156;28;102285;-55
2022/09/17 03:37:15;;;;;;;15.82;14.73;;;;;;;20.23;74.88;100020.84;5014024;28;103962;-55
2022/09/17 03:39:42;;;;;;;15.83;15.00;;;;;;;20.23;75.00;100015.31;5013902;28;102462;-55
2022/09/17 03:42:08;;;;;;;15.57;14.63;;;;;;;20.21;74.83;100012.09;5015940;28;102210;-55
2022/09/17 03:44:35;;;;;;;14.13;13.32;;;;;;;20.20;75.00;100010.50;5016894;28;102419;-55
2022/09/17 03:47:01;;;;;;;16.05;15.15;;;;;;;20.22;74.86;100012.88;5015377;28;103897;-56
2022/09/17 03:49:27;;;;;;;15.57;14.68;;;;;;;20.22;74.91;100007.34;5015831;28;102285;-55
2022/09/17 03:51:54;;;;;;;15.05;14.25;;;;;;;20.21;74.86;100006.56;5015650;28;102335;-56
2022/09/17 03:54:22;;;;;;;17.10;16.10;;;;;;;20.22;75.14;100002.63;5016761;28;102169;-55
2022/09/17 03:56:49;;;;;;;15.30;14.45;;;;;;;20.21;75.07;99998.28;5015574;28;103935;-55
2022/09/17 03:59:15;;;;;;;15.68;14.73;;;;;;;20.22;74.84;99999.06;5016034;28;102623;-55
2022/09/17 04:01:41;;;;;;;16.63;15.68;;;;;;;20.22;74.92;99999.88;5015307;28;102428;-56
2022/09/17 04:04:08;;;;;;;14.50;13.70;;;;;;;20.22;75.10;99996.31;5016618;28;102398;-55
2022/09/17 04:06:34;;;;;;;16.38;15.38;;;;;;;20.21;74.99;100001.03;5014271;28;104104;-55
2022/09/17 04:09:03;;;;;;;16.25;15.27;;;;;;;20.22;74.96;99996.31;5016054;28;102509;-56
2022/09/17 04:11:32;;;;;;;16.42;15.43;;;;;;;20.22;74.89;99991.59;5015713;28;102198;-56
2022/09/17 04:13:58;;;;;;;14.68;13.77;;;;;;;20.22;75.14;99985.25;4999670;28;102193;-55
2022/09/17 04:16:25;;;;;;;15.98;15.00;;;;;;;20.23;75.21;99992.38;5002079;28;104014;-56
2022/09/17 04:18:51;;;;;;;15.73;14.82;;;;;;;20.22;75.06;99997.09;5010951;28;102433;-55
2022/09/17 04:21:17;;;;;;;15.13;14.13;;;;;;;20.22;75.25;99991.59;5014937;28;102283;-55
2022/09/17 04:23:43;;;;;;;13.90;13.07;;;;;;;20.23;75.21;99992.38;5015079;28;102194;-55
2022/09/17 04:26:10;;;;;;;16.52;15.52;;;;;;;20.22;75.17;99991.59;5014293;28;103967;-55
2022/09/17 04:28:38;;;;;;;15.43;14.43;;;;;;;20.23;75.32;99982.16;5008736;28;102611;-55
2022/09/17 04:31:04;;;;;;;15.95;15.00;;;;;;;20.24;75.44;99994.81;4995660;28;102287;-56
2022/09/17 04:33:31;;;;;;;16.48;15.27;;;;;;;20.24;75.19;99983.75;4996733;28;103751;-55
2022/09/17 04:35:57;;;;;;;15.20;14.27;;;;;;;20.24;75.53;99978.22;5011196;28;104304;-55
2022/09/17 04:38:24;;;;;;;16.35;15.25;;;;;;;20.23;75.48;99976.63;5010830;28;102161;-55
2022/09/17 04:40:50;;;;;;;14.75;13.93;;;;;;;20.22;75.63;99968.69;5012889;28;102694;-55
2022/09/17 04:43:17;;;;;;;18.25;17.15;;;;;;;20.21;75.65;99962.34;4997961;28;102489;-55
2022/09/17 04:45:45;;;;;;;18.98;17.65;;;;;;;20.21;75.79;99959.59;4995014;28;103770;-55
2022/09/17 04:48:12;;;;;;;18.15;17.08;;;;;;;20.22;75.52;99958.44;5001644;28;102553;-55
2022/09/17 04:50:40;;;;;;;17.20;16.10;;;;;;;20.22;75.64;99952.91;5014965;28;102390;-55
2022/09/17 04:53:06;;;;;;;18.40;17.30;;;;;;;20.24;75.62;99955.31;5015481;28;102611;-55
2022/09/17 04:55:33;;;;;;;20.67;19.38;;;;;;;20.24;75.63;99950.59;5014341;28;104098;-55
2022/09/17 04:57:59;;;;;;;18.67;17.55;;;;;;;20.24;75.62;99953.38;5002063;28;102793;-55
2022/09/17 05:00:25;;;;;;;21.83;20.42;;;;;;;20.23;75.48;99954.53;4997460;28;102301;-55
2022/09/17 05:02:54;;;;;;;20.23;18.92;;;;;;;20.24;75.71;99961.66;5015428;28;102218;-55
2022/09/17 05:05:21;;;;;;;21.90;20.60;;;;;;;20.24;75.69;99961.66;5014986;28;103934;-55
2022/09/17 05:07:47;;;;;;;19.85;18.55;;;;;;;20.23;75.65;99960.06;5014093;28;102240;-55
2022/09/17 05:10:16;;;;;;;21.23;19.75;;;;;;;20.23;75.80;99948.19;5013991;28;102415;-55
2022/09/17 05:12:47;;;;;;;18.80;17.63;;;;;;;20.24;75.54;99949.81;5007836;28;102223;-55
2022/09/17 05:15:13;;;;;;;20.70;19.30;;;;;;;20.24;75.66;99955.31;5014153;28;104743;-55
2022/09/17 05:17:40;;;;;;;20.25;18.85;;;;;;;20.24;75.95;99956.13;5013874;28;102269;-55
2022/09/17 05:20:09;;;;;;;18.08;16.88;;;;;;;20.24;75.48;99953.38;5014403;28;102244;-55
2022/09/17 05:22:40;;;;;;;21.13;19.83;;;;;;;20.24;75.83;99956.13;5014861;28;102265;-55
2022/09/17 05:25:07;;;;;;;19.67;18.27;;;;;;;20.25;75.84;99946.69;5013943;28;104255;-55
2022/09/17 05:27:33;;;;;;;20.58;19.27;;;;;;;20.24;75.70;99950.59;5006388;28;102306;-55
2022/09/17 05:30:04;;;;;;;20.58;19.17;;;;;;;20.25;75.91;99952.19;5014275;28;102346;-55
2022/09/17 05:32:30;;;;;;;21.38;20.08;;;;;;;20.24;75.83;99942.31;5013635;28;102384;-54
2022/09/17 05:34:57;;;;;;;21.67;20.38;;;;;;;20.26;75.98;99939.19;5013838;28;104946;-53
2022/09/17 05:37:24;;;;;;;21.08;19.58;;;;;;;20.25;75.76;99941.16;5017489;28;101875;-55
2022/09/17 05:39:51;;;;;;;20.13;18.83;;;;;;;20.25;76.15;99940.34;5028053;27;102054;-55
2022/09/17 05:42:17;;;;;;;20.63;19.20;;;;;;;20.25;75.78;99946.69;5019334;27;102139;-55
2022/09/17 05:44:44;;;;;;;19.90;18.65;;;;;;;20.24;76.29;99947.84;5009191;28;103946;-55
2022/09/17 05:47:10;;;;;;;20.30;19.02;;;;;;;20.26;76.02;99955.75;5015676;28;102994;-55
2022/09/17 05:49:37;;;;;;;19.13;17.85;;;;;;;20.26;75.78;99962.09;4994277;28;102461;-56
2022/09/17 05:52:03;;;;;;;23.20;21.70;;;;;;;20.25;76.16;99963.25;5013674;28;102386;-55
2022/09/17 05:54:31;;;;;;;22.02;20.52;;;;;;;20.26;75.70;99955.75;4996397;28;103911;-55
2022/09/17 05:56:57;;;;;;;22.48;20.92;;;;;;;20.27;76.06;99954.63;4997089;28;102551;-55
2022/09/17 05:59:24;;;;;;;22.27;20.98;;;;;;;20.26;75.96;99947.47;4979336;28;102361;-55
2022/09/17 06:01:50;;;;;;;20.73;19.52;;;;;;;20.29;75.98;99947.56;4998686;28;102360;-55
2022/09/17 06:04:17;;;;;;;19.35;18.13;;;;;;;20.29;75.87;99947.56;4996727;28;103931;-56
2022/09/17 06:06:43;;;;;;;21.70;20.42;;;;;;;20.30;76.06;99940.91;4995912;28;102128;-56
2022/09/17 06:09:10;;;;;;;20.70;19.50;;;;;;;20.32;76.11;99946.84;4994729;28;102344;-56
2022/09/17 06:11:38;;;;;;;21.85;20.45;;;;;;;20.32;76.00;99938.56;4998540;28;102270;-55
2022/09/17 06:14:05;;;;;;;23.13;21.63;;;;;;;20.33;76.00;99942.94;4996299;28;104054;-55
2022/09/17 06:16:32;;;;;;;20.48;19.08;;;;;;;20.33;76.05;99936.59;4992219;28;103078;-55
2022/09/17 06:18:59;;;;;;;24.15;22.65;;;;;;;20.31;76.36;99928.69;4996848;28;102419;-55
2022/09/17 06:21:25;;;;;;;22.95;21.35;;;;;;;20.32;76.30;99922.00;4998123;28;102398;-55
2022/09/17 06:23:52;;;;;;;24.27;22.73;;;;;;;20.34;76.52;99927.16;4991993;28;103923;-55
2022/09/17 06:26:18;;;;;;;22.13;20.83;;;;;;;20.34;76.42;99933.50;4989971;28;102424;-55
2022/09/17 06:28:46;;;;;;;26.75;24.77;;;;;;;20.36;76.68;99944.19;4988003;28;102514;-55
2022/09/17 06:31:13;;;;;;;23.20;21.65;;;;;;;20.35;76.73;99935.09;4986049;28;102252;-55
2022/09/17 06:33:39;;;;;;;24.65;22.90;;;;;;;20.36;76.77;99925.63;4993276;28;103936;-55
2022/09/17 06:36:10;;;;;;;23.38;22.00;;;;;;;20.35;77.12;99924.03;4989444;28;102468;-55
2022/09/17 06:38:37;;;;;;;25.45;23.85;;;;;;;20.36;77.43;99924.84;5003994;28;102376;-55
2022/09/17 06:41:04;;;;;;;28.67;26.88;;;;;;;20.35;77.14;99918.53;4996057;28;102498;-56
2022/09/17 06:43:30;;;;;;;29.08;27.05;;;;;;;20.36;77.17;99914.59;4995856;28;104044;-55
2022/09/17 06:46:00;;;;;;;29.35;27.58;;;;;;;20.38;77.53;99917.81;4995799;28;102744;-55
2022/09/17 06:48:28;;;;;;;30.63;28.52;;;;;;;20.39;77.15;99918.59;4993805;28;102346;-56
2022/09/17 06:51:00;;;;;;;28.60;26.73;;;;;;;20.42;77.14;99911.56;4993430;28;102236;-55
2022/09/17 06:53:28;;;;;;;24.65;22.95;;;;;;;20.42;77.36;99915.13;4989609;28;103895;-55
2022/09/17 06:55:57;;;;;;;20.90;19.45;;;;;;;20.44;77.23;99917.53;4993138;28;102183;-55
2022/09/17 06:58:23;;;;;;;24.52;22.88;;;;;;;20.44;77.33;99918.31;5006121;28;102354;-55
2022/09/17 07:00:50;;;;;;;26.73;24.92;;;;;;;20.46;77.36;99909.69;5004917;28;102405;-55
2022/09/17 07:03:17;;;;;;;22.35;20.58;;;;;;;20.46;77.21;99915.22;4996108;28;103916;-55
2022/09/17 07:05:44;;;;;;;28.15;26.35;;;;;;;20.47;77.40;99914.06;4996683;28;102349;-56
2022/09/17 07:08:11;;;;;;;33.00;30.92;;;;;;;20.47;77.54;99914.84;4996317;28;101995;-55
2022/09/17 07:10:37;;;;;;;32.30;30.02;;;;;;;20.49;77.58;99911.75;4997822;28;102649;-55
2022/09/17 07:13:03;;;;;;;33.90;31.45;;;;;;;20.50;77.60;99914.16;4995120;28;104987;-55
2022/09/17 07:15:30;;;;;;;25.63;23.63;;;;;;;20.53;77.65;99907.13;4996665;28;102353;-55
2022/09/17 07:17:57;;;;;;;32.97;30.75;;;;;;;20.55;77.53;99904.78;4995628;28;102584;-55
2022/09/17 07:20:25;;;;;;;36.15;33.63;;;;;;;20.57;77.92;99908.03;4995390;28;102438;-55
2022/09/17 07:22:55;;;;;;;33.92;31.60;;;;;;;20.59;77.80;99905.69;4996128;28;103839;-57
2022/09/17 07:25:23;;;;;;;35.38;32.90;;;;;;;20.59;78.13;99906.50;4996763;28;102048;-57
2022/09/17 07:27:49;;;;;;;38.67;35.80;;;;;;;20.59;78.20;99905.69;4993726;28;102420;-55
2022/09/17 07:30:16;;;;;;;32.35;30.02;;;;;;;20.57;77.90;99897.75;4995603;28;102871;-56
2022/09/17 07:32:42;;;;;;;24.20;22.35;;;;;;;20.59;77.80;99892.69;4995899;28;104882;-55
2022/09/17 07:35:09;;;;;;;40.47;37.65;;;;;;;20.58;77.80;99893.03;4995681;28;102147;-55
2022/09/17 07:37:38;;;;;;;33.85;31.67;;;;;;;20.59;77.77;99889.09;4995306;28;102209;-55
2022/09/17 07:40:06;;;;;;;30.75;28.83;;;;;;;20.61;77.93;99890.34;4998960;28;103483;-55
2022/09/17 07:42:32;;;;;;;24.83;23.08;;;;;;;20.62;77.81;99891.16;5012569;28;104119;-55
2022/09/17 07:44:59;;;;;;;33.70;31.50;;;;;;;20.66;77.87;99896.75;5016112;28;102306;-55
2022/09/17 07:47:25;;;;;;;40.72;37.70;;;;;;;20.67;77.81;99896.41;5016139;28;102315;-55
2022/09/17 07:49:52;;;;;;;36.13;33.65;;;;;;;20.70;77.62;99895.69;5016932;28;102174;-55
2022/09/17 07:52:19;;;;;;;31.20;28.63;;;;;;;20.72;77.48;99885.06;5015221;28;104207;-55
2022/09/17 07:54:47;;;;;;;29.38;27.08;;;;;;;20.74;77.95;99882.75;5016097;28;102129;-55
2022/09/17 07:57:13;;;;;;;18.10;16.75;;;;;;;20.76;77.49;99871.31;5015479;28;102300;-56
2022/09/17 07:59:40;;;;;;;27.10;25.00;;;;;;;20.78;77.47;99875.34;5016438;28;102195;-55
2022/09/17 08:02:10;;;;;;;24.15;22.50;;;;;;;20.79;77.40;99879.69;5015583;28;103952;-55
2022/09/17 08:04:37;;;;;;;24.98;23.08;;;;;;;20.82;77.54;99881.75;5016332;28;102419;-55
2022/09/17 08:07:03;;;;;;;33.53;31.05;;;;;;;20.84;77.32;99867.56;5014550;28;102583;-56
2022/09/17 08:09:30;;;;;;;24.50;22.90;;;;;;;20.87;77.38;99872.38;4996648;28;102305;-53
2022/09/17 08:11:58;;;;;;;23.15;21.33;;;;;;;20.88;77.19;99865.69;4995757;28;104028;-55
2022/09/17 08:14:25;;;;;;;20.08;18.33;;;;;;;20.88;77.35;99866.50;5016393;28;102314;-55
2022/09/17 08:16:51;;;;;;;19.60;18.23;;;;;;;20.91;77.15;99855.84;5010457;28;102424;-55
2022/09/17 08:19:19;;;;;;;24.60;22.95;;;;;;;20.92;77.26;99851.94;5011899;28;102743;-55
2022/09/17 08:21:45;;;;;;;24.50;22.48;;;;;;;20.96;77.27;99863.88;5015263;28;103943;-55
2022/09/17 08:24:12;;;;;;;22.58;20.67;;;;;;;20.95;76.91;99863.06;5015692;28;102164;-55
2022/09/17 08:26:40;;;;;;;21.85;20.02;;;;;;;20.95;77.14;99867.78;5015133;28;102262;-55
2022/09/17 08:29:09;;;;;;;21.50;19.83;;;;;;;20.96;77.21;99869.41;5015423;28;102164;-56
2022/09/17 08:31:36;;;;;;;21.48;19.70;;;;;;;20.97;77.16;99862.72;5008382;28;104067;-55
2022/09/17 08:34:07;;;;;;;21.30;19.58;;;;;;;20.99;76.82;99852.06;5015522;28;101953;-55
2022/09/17 08:36:33;;;;;;;20.65;18.88;;;;;;;20.99;76.73;99857.59;5014522;28;102263;-56
2022/09/17 08:39:00;;;;;;;19.67;17.90;;;;;;;21.00;77.04;99853.69;5016488;28;102158;-55
2022/09/17 08:41:40;;;;;;;16.80;15.48;;;;;;;20.99;76.37;99852.06;5015129;28;103887;-55
2022/09/17 08:44:17;;;;;;;17.23;16.02;;;;;;;20.99;76.75;99852.88;5014172;28;101896;-55
2022/09/17 08:46:47;;;;;;;16.63;14.90;;;;;;;21.00;76.48;99851.72;5008783;28;102346;-55
2022/09/17 08:49:23;;;;;;;15.77;14.40;;;;;;;21.00;76.50;99848.16;5016146;28;102281;-55
2022/09/17 08:52:01;;;;;;;14.57;13.48;;;;;;;21.01;76.77;99852.50;5011798;28;104127;-55
2022/09/17 08:54:35;;;;;;;20.50;19.05;;;;;;;21.04;76.35;99852.59;5003688;28;102066;-55
2022/09/17 08:57:16;;;;;;;19.10;17.55;;;;;;;21.05;76.82;99851.41;4998430;28;102166;-55
2022/09/17 08:59:49;;;;;;;20.17;18.45;;;;;;;21.05;76.54;99856.16;5007567;28;102021;-56
2022/09/17 09:02:31;;;;;;;16.80;15.60;;;;;;;21.05;76.71;99856.16;5003960;28;103963;-55
2022/09/17 09:05:03;;;;;;;16.60;15.25;;;;;;;21.06;76.59;99855.81;5006028;28;102019;-55
2022/09/17 09:07:36;;;;;;;17.15;15.95;;;;;;;21.07;76.92;99853.84;5001597;28;106692;-54
2022/09/17 09:10:12;;;;;;;17.80;16.13;;;;;;;21.05;76.30;99851.41;5013711;28;106614;-55
2022/09/17 09:12:42;;;;;;;16.30;14.85;;;;;;;21.05;76.62;99856.94;5013242;28;103970;-55
2022/09/17 09:15:22;;;;;;;13.85;12.50;;;;;;;21.05;76.84;99839.56;5006902;28;102351;-55
2022/09/17 09:17:50;;;;;;;14.20;13.10;;;;;;;21.04;76.34;99827.69;5014013;28;102417;-56
2022/09/17 09:20:21;;;;;;;14.13;13.03;;;;;;;21.05;76.32;99839.56;5010875;28;102334;-55
2022/09/17 09:22:50;;;;;;;8.45;7.75;;;;;;;21.04;76.36;99833.22;5015479;28;104040;-56
2022/09/17 09:25:22;;;;;;;10.07;9.27;;;;;;;21.04;76.24;99835.19;5015892;28;102212;-56
2022/09/17 09:28:16;;;;;;;10.13;9.23;;;;;;;21.03;76.16;99833.59;5013725;28;102511;-56
2022/09/17 09:30:59;;;;;;;8.75;7.95;;;;;;;21.03;76.05;99830.84;5007504;28;102457;-56
2022/09/17 09:33:29;;;;;;;8.93;8.05;;;;;;;21.03;75.93;99825.31;5012833;28;103905;-56
2022/09/17 09:35:55;;;;;;;10.02;9.07;;;;;;;21.02;76.12;99818.94;5010948;28;102484;-55
2022/09/17 09:38:31;;;;;;;10.50;9.73;;;;;;;21.01;76.05;99811.81;5015666;28;101970;-56
2022/09/17 09:41:05;;;;;;;11.55;10.45;;;;;;;21.05;75.99;99820.19;5008636;28;102604;-56
2022/09/17 09:43:39;;;;;;;11.00;8.18;;;;;;;21.04;75.87;99822.16;5002988;28;103982;-56
2022/09/17 09:46:37;;;;;;;12.00;10.50;;;;;;;21.04;75.88;99815.84;5008875;28;102016;-55
2022/09/17 09:49:14;;;;;;;9.45;7.00;;;;;;;21.04;76.01;99804.78;5005112;28;103494;-55
2022/09/17 09:51:54;;;;;;;9.88;7.72;;;;;;;21.05;76.17;99807.16;5012678;28;102429;-55
2022/09/17 09:54:34;;;;;;;8.35;6.90;;;;;;;21.06;76.16;99794.94;5012014;28;104118;-55
2022/09/17 09:57:06;;;;;;;10.45;9.38;;;;;;;21.06;76.07;99791.34;5007262;28;102877;-55
2022/09/17 09:59:35;;;;;;;9.02;8.23;;;;;;;21.06;76.17;99797.72;5009481;28;102537;-55
2022/09/17 10:02:03;;;;;;;8.82;8.05;;;;;;;21.04;75.93;99788.97;4997595;28;102432;-55
2022/09/17 10:04:31;;;;;;;10.82;8.10;;;;;;;21.06;76.15;99786.66;5011444;28;104120;-55
2022/09/17 10:07:02;;;;;;;9.07;8.20;;;;;;;21.07;75.77;99781.91;5007973;28;102671;-54
2022/09/17 10:09:31;;;;;;;8.77;7.40;;;;;;;21.05;75.94;99781.47;5015434;28;102234;-56
2022/09/17 10:12:03;;;;;;;8.65;7.85;;;;;;;21.05;75.80;99778.69;5017539;28;102729;-56
2022/09/17 10:14:32;;;;;;;8.05;7.35;;;;;;;21.03;75.45;99775.50;5009432;28;104124;-55
2022/09/17 10:17:20;;;;;;;7.18;6.47;;;;;;;21.03;75.56;99792.13;5015901;28;102333;-55
2022/09/17 10:20:15;;;;;;;10.80;9.80;;;;;;;21.01;75.42;99797.19;5007510;28;102499;-55
2022/09/17 10:22:43;;;;;;;12.35;9.75;;;;;;;21.00;75.68;99785.34;5014443;28;102753;-56
2022/09/17 10:25:31;;;;;;;11.60;9.53;;;;;;;21.01;75.47;99788.91;5011276;28;103891;-56
2022/09/17 10:28:00;;;;;;;11.18;8.68;;;;;;;21.00;75.43;99781.78;5008776;28;102284;-55
2022/09/17 10:30:27;;;;;;;9.00;7.68;;;;;;;21.01;75.46;99783.38;5009433;28;102396;-55
2022/09/17 10:33:16;;;;;;;9.32;8.48;;;;;;;21.02;75.50;99784.97;5015576;28;102604;-55
2022/09/17 10:35:57;;;;;;;9.75;7.63;;;;;;;21.01;75.54;99778.63;5001928;28;104043;-56
2022/09/17 10:38:29;;;;;;;10.02;8.10;;;;;;;21.01;75.43;99772.31;5007626;28;102272;-55
2022/09/17 10:41:10;;;;;;;8.95;8.15;;;;;;;20.99;75.35;99766.31;5007212;28;102261;-55
2022/09/17 10:43:36;;;;;;;9.00;8.18;;;;;;;20.98;75.37;99770.25;5006638;28;106770;-56
2022/09/17 10:46:03;;;;;;;8.52;7.82;;;;;;;20.97;75.25;99768.66;5006245;28;104033;-56
2022/09/17 10:48:37;;;;;;;8.57;7.68;;;;;;;20.96;75.44;99775.38;5009151;28;102357;-55
2022/09/17 10:51:05;;;;;;;12.05;7.72;;;;;;;20.95;75.47;99763.47;5004921;28;102121;-56
2022/09/17 10:53:51;;;;;;;8.10;7.43;;;;;;;20.95;75.37;99766.25;5008331;28;102769;-55
2022/09/17 10:56:25;;;;;;;7.03;6.43;;;;;;;20.96;75.33;99761.53;5002483;28;107972;-55
2022/09/17 10:59:01;;;;;;;9.57;8.05;;;;;;;20.97;75.44;99766.69;4999090;28;102216;-55
2022/09/17 11:01:39;;;;;;;10.05;6.03;;;;;;;20.97;75.46;99754.84;5005984;28;102421;-55
2022/09/17 11:04:24;;;;;;;11.38;10.38;;;;;;;20.97;75.46;99749.31;5001851;28;102276;-56
2022/09/17 11:07:19;;;;;;;10.63;9.65;;;;;;;20.96;75.51;99753.25;5003477;28;103866;-55
2022/09/17 11:09:55;;;;;;;10.88;9.80;;;;;;;20.96;75.64;99744.94;5001974;28;102548;-56
2022/09/17 11:12:32;;;;;;;10.80;9.70;;;;;;;20.96;75.64;99753.25;4999405;28;102379;-56
2022/09/17 11:15:05;;;;;;;11.48;8.70;;;;;;;20.95;75.66;99757.16;5000920;28;102359;-56
2022/09/17 11:17:50;;;;;;;9.95;8.65;;;;;;;20.95;75.58;99759.91;4996661;28;103945;-56
2022/09/17 11:20:31;;;;;;;9.30;8.20;;;;;;;20.95;75.58;99751.63;5007852;28;102328;-57
2022/09/17 11:23:11;;;;;;;8.88;8.07;;;;;;;20.93;75.39;99754.75;5013041;28;101987;-56
2022/09/17 11:25:45;;;;;;;11.52;8.63;;;;;;;20.93;75.83;99753.97;5014966;28;102522;-55